sensor_id;sensor_type;location;lat;lon;timestamp;temperature;humidity
8563;DHT22;16392;52.508;13.468;2023-02-24T00:01:13;7.30;99.90
8563;DHT22;16392;52.508;13.468;2023-02-24T00:03:50;7.30;99.90
8563;DHT22;16392;52.508;13.468;2023-02-24T00:06:16;7.30;99.90
8563;DHT22;16392;52.508;13.468;2023-02-24T00:08:44;7.30;99.90
8563;DHT22;16392;52.508;13.468;2023-02-24T00:11:13;7.30;99.90
8563;DHT22;16392;52.508;13.468;2023-02-24T00:13:40;7.30;99.90
8563;DHT22;16392;52.508;13.468;2023-02-24T00:16:11;7.30;99.90
8563;DHT22;16392;52.508;13.468;2023-02-24T00:18:39;7.30;99.90
8563;DHT22;16392;52.508;13.468;2023-02-24T00:21:07;7.20;99.90
8563;DHT22;16392;52.508;13.468;2023-02-24T00:23:35;7.30;99.90
8563;DHT22;16392;52.508;13.468;2023-02-24T00:26:04;7.30;99.90
8563;DHT22;16392;52.508;13.468;2023-02-24T00:28:31;7.20;99.90
8563;DHT22;16392;52.508;13.468;2023-02-24T00:31:02;7.30;99.90
8563;DHT22;16392;52.508;13.468;2023-02-24T00:33:30;7.20;99.90
8563;DHT22;16392;52.508;13.468;2023-02-24T00:36:03;7.20;99.90
8563;DHT22;16392;52.508;13.468;2023-02-24T00:38:30;7.20;99.90
8563;DHT22;16392;52.508;13.468;2023-02-24T00:41:07;7.20;99.90
8563;DHT22;16392;52.508;13.468;2023-02-24T00:43:36;7.20;99.90
8563;DHT22;16392;52.508;13.468;2023-02-24T00:46:04;7.20;99.90
8563;DHT22;16392;52.508;13.468;2023-02-24T00:48:37;7.10;99.90
8563;DHT22;16392;52.508;13.468;2023-02-24T00:51:06;7.10;99.90
8563;DHT22;16392;52.508;13.468;2023-02-24T00:53:33;7.00;99.90
8563;DHT22;16392;52.508;13.468;2023-02-24T00:55:59;7.00;99.90
8563;DHT22;16392;52.508;13.468;2023-02-24T00:58:27;7.00;99.90
8563;DHT22;16392;52.508;13.468;2023-02-24T01:00:55;7.00;99.90
8563;DHT22;16392;52.508;13.468;2023-02-24T01:03:23;6.90;99.90
8563;DHT22;16392;52.508;13.468;2023-02-24T01:05:51;6.80;99.90
8563;DHT22;16392;52.508;13.468;2023-02-24T01:08:18;6.70;99.90
8563;DHT22;16392;52.508;13.468;2023-02-24T01:10:54;6.70;99.90
8563;DHT22;16392;52.508;13.468;2023-02-24T01:13:42;6.60;99.90
8563;DHT22;16392;52.508;13.468;2023-02-24T01:16:09;6.50;99.90
8563;DHT22;16392;52.508;13.468;2023-02-24T01:18:37;6.50;99.90
8563;DHT22;16392;52.508;13.468;2023-02-24T01:21:04;6.40;99.90
8563;DHT22;16392;52.508;13.468;2023-02-24T01:23:30;6.30;99.90
8563;DHT22;16392;52.508;13.468;2023-02-24T01:25:58;6.30;99.90
8563;DHT22;16392;52.508;13.468;2023-02-24T01:28:25;6.20;99.90
8563;DHT22;16392;52.508;13.468;2023-02-24T01:30:53;6.20;99.90
8563;DHT22;16392;52.508;13.468;2023-02-24T01:33:20;6.10;99.90
8563;DHT22;16392;52.508;13.468;2023-02-24T01:35:47;6.10;99.90
8563;DHT22;16392;52.508;13.468;2023-02-24T01:38:13;6.00;99.90
8563;DHT22;16392;52.508;13.468;2023-02-24T01:40:40;6.00;99.90
8563;DHT22;16392;52.508;13.468;2023-02-24T01:43:09;5.90;99.90
8563;DHT22;16392;52.508;13.468;2023-02-24T01:45:35;5.90;99.90
8563;DHT22;16392;52.508;13.468;2023-02-24T01:48:07;5.80;99.90
8563;DHT22;16392;52.508;13.468;2023-02-24T01:50:36;5.80;99.90
8563;DHT22;16392;52.508;13.468;2023-02-24T01:53:05;5.70;99.90
8563;DHT22;16392;52.508;13.468;2023-02-24T01:55:36;5.60;99.90
8563;DHT22;16392;52.508;13.468;2023-02-24T01:58:09;5.50;99.90
8563;DHT22;16392;52.508;13.468;2023-02-24T02:00:38;5.40;99.90
8563;DHT22;16392;52.508;13.468;2023-02-24T02:03:16;5.30;99.90
8563;DHT22;16392;52.508;13.468;2023-02-24T02:05:43;5.30;99.90
8563;DHT22;16392;52.508;13.468;2023-02-24T02:08:13;5.20;99.90
8563;DHT22;16392;52.508;13.468;2023-02-24T02:10:42;5.10;99.90
8563;DHT22;16392;52.508;13.468;2023-02-24T02:13:10;5.00;99.90
8563;DHT22;16392;52.508;13.468;2023-02-24T02:15:44;5.00;99.90
8563;DHT22;16392;52.508;13.468;2023-02-24T02:18:19;4.90;99.90
8563;DHT22;16392;52.508;13.468;2023-02-24T02:23:57;4.80;99.90
8563;DHT22;16392;52.508;13.468;2023-02-24T02:27:00;4.80;99.90
8563;DHT22;16392;52.508;13.468;2023-02-24T02:29:55;4.80;99.90
8563;DHT22;16392;52.508;13.468;2023-02-24T02:32:50;4.80;99.90
8563;DHT22;16392;52.508;13.468;2023-02-24T02:35:30;4.80;99.90
8563;DHT22;16392;52.508;13.468;2023-02-24T02:38:08;4.80;99.90
8563;DHT22;16392;52.508;13.468;2023-02-24T02:40:38;4.70;99.90
8563;DHT22;16392;52.508;13.468;2023-02-24T02:43:13;4.70;99.90
8563;DHT22;16392;52.508;13.468;2023-02-24T02:45:44;4.70;99.90
8563;DHT22;16392;52.508;13.468;2023-02-24T02:48:16;4.70;99.90
8563;DHT22;16392;52.508;13.468;2023-02-24T02:50:48;4.60;99.90
8563;DHT22;16392;52.508;13.468;2023-02-24T02:53:23;4.60;99.90
8563;DHT22;16392;52.508;13.468;2023-02-24T02:55:55;4.50;99.90
8563;DHT22;16392;52.508;13.468;2023-02-24T02:58:25;4.50;99.90
8563;DHT22;16392;52.508;13.468;2023-02-24T03:00:56;4.40;99.90
8563;DHT22;16392;52.508;13.468;2023-02-24T03:03:28;4.40;99.90
8563;DHT22;16392;52.508;13.468;2023-02-24T03:06:00;4.40;99.90
8563;DHT22;16392;52.508;13.468;2023-02-24T03:08:29;4.40;99.90
8563;DHT22;16392;52.508;13.468;2023-02-24T03:11:00;4.40;99.90
8563;DHT22;16392;52.508;13.468;2023-02-24T03:13:31;4.40;99.90
8563;DHT22;16392;52.508;13.468;2023-02-24T03:16:02;4.30;99.90
8563;DHT22;16392;52.508;13.468;2023-02-24T03:18:34;4.30;99.90
8563;DHT22;16392;52.508;13.468;2023-02-24T03:21:06;4.30;97.20
8563;DHT22;16392;52.508;13.468;2023-02-24T03:23:36;4.20;98.90
8563;DHT22;16392;52.508;13.468;2023-02-24T03:26:09;4.20;99.90
8563;DHT22;16392;52.508;13.468;2023-02-24T03:28:47;4.20;99.90
8563;DHT22;16392;52.508;13.468;2023-02-24T03:31:21;4.30;99.90
8563;DHT22;16392;52.508;13.468;2023-02-24T03:33:57;4.20;99.90
8563;DHT22;16392;52.508;13.468;2023-02-24T03:36:26;4.30;99.90
8563;DHT22;16392;52.508;13.468;2023-02-24T03:38:53;4.30;99.90
8563;DHT22;16392;52.508;13.468;2023-02-24T03:41:23;4.20;99.90
8563;DHT22;16392;52.508;13.468;2023-02-24T03:43:55;4.20;99.90
8563;DHT22;16392;52.508;13.468;2023-02-24T03:46:23;4.20;99.90
8563;DHT22;16392;52.508;13.468;2023-02-24T03:48:56;4.20;99.90
8563;DHT22;16392;52.508;13.468;2023-02-24T03:51:22;4.20;99.90
8563;DHT22;16392;52.508;13.468;2023-02-24T03:54:11;4.20;99.90
8563;DHT22;16392;52.508;13.468;2023-02-24T03:56:47;4.20;99.90
8563;DHT22;16392;52.508;13.468;2023-02-24T03:59:29;4.30;99.90
8563;DHT22;16392;52.508;13.468;2023-02-24T04:02:04;4.20;99.90
8563;DHT22;16392;52.508;13.468;2023-02-24T04:04:36;4.20;99.90
8563;DHT22;16392;52.508;13.468;2023-02-24T04:07:09;4.20;97.70
8563;DHT22;16392;52.508;13.468;2023-02-24T04:09:42;4.20;99.90
8563;DHT22;16392;52.508;13.468;2023-02-24T04:12:16;4.30;99.90
8563;DHT22;16392;52.508;13.468;2023-02-24T04:14:49;4.30;99.90
8563;DHT22;16392;52.508;13.468;2023-02-24T04:17:21;4.30;99.90
8563;DHT22;16392;52.508;13.468;2023-02-24T04:19:51;4.30;99.90
8563;DHT22;16392;52.508;13.468;2023-02-24T04:22:21;4.30;99.90
8563;DHT22;16392;52.508;13.468;2023-02-24T04:24:54;4.30;99.90
8563;DHT22;16392;52.508;13.468;2023-02-24T04:27:23;4.30;99.90
8563;DHT22;16392;52.508;13.468;2023-02-24T04:29:54;4.30;99.90
8563;DHT22;16392;52.508;13.468;2023-02-24T04:32:27;4.30;99.90
8563;DHT22;16392;52.508;13.468;2023-02-24T04:35:01;4.30;99.90
8563;DHT22;16392;52.508;13.468;2023-02-24T04:37:27;4.30;99.90
8563;DHT22;16392;52.508;13.468;2023-02-24T04:39:59;4.30;99.90
8563;DHT22;16392;52.508;13.468;2023-02-24T04:42:26;4.30;99.90
8563;DHT22;16392;52.508;13.468;2023-02-24T04:44:53;4.30;99.90
8563;DHT22;16392;52.508;13.468;2023-02-24T04:47:22;4.30;99.90
8563;DHT22;16392;52.508;13.468;2023-02-24T04:49:49;4.30;99.90
8563;DHT22;16392;52.508;13.468;2023-02-24T04:52:15;4.30;99.90
8563;DHT22;16392;52.508;13.468;2023-02-24T04:54:45;4.30;99.90
8563;DHT22;16392;52.508;13.468;2023-02-24T04:57:13;4.30;99.90
8563;DHT22;16392;52.508;13.468;2023-02-24T04:59:40;4.30;99.90
8563;DHT22;16392;52.508;13.468;2023-02-24T05:02:06;4.30;99.90
8563;DHT22;16392;52.508;13.468;2023-02-24T05:04:34;4.30;99.90
8563;DHT22;16392;52.508;13.468;2023-02-24T05:07:03;4.20;99.90
8563;DHT22;16392;52.508;13.468;2023-02-24T05:09:29;4.20;99.90
8563;DHT22;16392;52.508;13.468;2023-02-24T05:11:56;4.30;81.70
8563;DHT22;16392;52.508;13.468;2023-02-24T05:14:25;4.20;70.30
8563;DHT22;16392;52.508;13.468;2023-02-24T05:16:52;4.30;99.90
8563;DHT22;16392;52.508;13.468;2023-02-24T05:19:24;4.20;36.50
8563;DHT22;16392;52.508;13.468;2023-02-24T05:22:09;4.20;40.90
8563;DHT22;16392;52.508;13.468;2023-02-24T05:24:36;4.20;57.90
8563;DHT22;16392;52.508;13.468;2023-02-24T05:27:03;4.20;90.40
8563;DHT22;16392;52.508;13.468;2023-02-24T05:29:33;4.20;40.10
8563;DHT22;16392;52.508;13.468;2023-02-24T05:32:01;4.20;86.90
8563;DHT22;16392;52.508;13.468;2023-02-24T05:34:30;4.20;60.30
8563;DHT22;16392;52.508;13.468;2023-02-24T05:36:57;4.20;46.30
8563;DHT22;16392;52.508;13.468;2023-02-24T05:39:26;4.20;69.40
8563;DHT22;16392;52.508;13.468;2023-02-24T05:41:54;4.20;60.60
8563;DHT22;16392;52.508;13.468;2023-02-24T05:44:23;4.20;61.90
8563;DHT22;16392;52.508;13.468;2023-02-24T05:46:53;4.20;68.10
8563;DHT22;16392;52.508;13.468;2023-02-24T05:49:24;4.10;81.90
8563;DHT22;16392;52.508;13.468;2023-02-24T05:51:53;4.10;83.50
8563;DHT22;16392;52.508;13.468;2023-02-24T05:54:22;4.10;99.90
8563;DHT22;16392;52.508;13.468;2023-02-24T05:56:50;4.10;99.90
8563;DHT22;16392;52.508;13.468;2023-02-24T05:59:17;4.10;99.90
8563;DHT22;16392;52.508;13.468;2023-02-24T06:01:46;4.10;99.90
8563;DHT22;16392;52.508;13.468;2023-02-24T06:04:15;4.00;98.10
8563;DHT22;16392;52.508;13.468;2023-02-24T06:06:52;4.10;94.10
8563;DHT22;16392;52.508;13.468;2023-02-24T06:09:19;4.10;72.20
8563;DHT22;16392;52.508;13.468;2023-02-24T06:11:48;4.10;21.80
8563;DHT22;16392;52.508;13.468;2023-02-24T06:14:15;4.10;37.20
8563;DHT22;16392;52.508;13.468;2023-02-24T06:16:42;4.10;25.50
8563;DHT22;16392;52.508;13.468;2023-02-24T06:19:10;4.10;1.00
8563;DHT22;16392;52.508;13.468;2023-02-24T06:21:40;4.10;10.00
8563;DHT22;16392;52.508;13.468;2023-02-24T06:24:10;4.10;34.90
8563;DHT22;16392;52.508;13.468;2023-02-24T06:26:38;4.10;79.90
8563;DHT22;16392;52.508;13.468;2023-02-24T06:29:11;4.10;64.60
8563;DHT22;16392;52.508;13.468;2023-02-24T06:31:39;4.20;96.70
8563;DHT22;16392;52.508;13.468;2023-02-24T06:34:06;4.20;61.50
8563;DHT22;16392;52.508;13.468;2023-02-24T06:36:35;4.20;64.20
8563;DHT22;16392;52.508;13.468;2023-02-24T06:39:03;4.30;58.10
8563;DHT22;16392;52.508;13.468;2023-02-24T06:41:32;4.20;72.60
8563;DHT22;16392;52.508;13.468;2023-02-24T06:43:59;4.20;98.60
8563;DHT22;16392;52.508;13.468;2023-02-24T06:46:26;4.30;99.90
8563;DHT22;16392;52.508;13.468;2023-02-24T06:48:52;4.30;86.20
8563;DHT22;16392;52.508;13.468;2023-02-24T06:51:19;4.40;77.10
8563;DHT22;16392;52.508;13.468;2023-02-24T06:53:47;4.40;22.00
8563;DHT22;16392;52.508;13.468;2023-02-24T06:56:16;4.50;10.70
8563;DHT22;16392;52.508;13.468;2023-02-24T06:58:45;4.50;1.00
8563;DHT22;16392;52.508;13.468;2023-02-24T07:01:14;4.50;1.00
8563;DHT22;16392;52.508;13.468;2023-02-24T07:03:42;4.50;1.00
8563;DHT22;16392;52.508;13.468;2023-02-24T07:06:24;4.50;1.00
8563;DHT22;16392;52.508;13.468;2023-02-24T07:08:53;4.40;1.00
8563;DHT22;16392;52.508;13.468;2023-02-24T07:11:21;4.50;1.00
8563;DHT22;16392;52.508;13.468;2023-02-24T07:13:48;4.50;1.00
8563;DHT22;16392;52.508;13.468;2023-02-24T07:16:17;4.50;1.00
8563;DHT22;16392;52.508;13.468;2023-02-24T07:18:45;4.50;1.00
8563;DHT22;16392;52.508;13.468;2023-02-24T07:21:14;4.50;99.90
8563;DHT22;16392;52.508;13.468;2023-02-24T07:23:43;4.50;99.90
8563;DHT22;16392;52.508;13.468;2023-02-24T07:26:11;4.50;1.00
8563;DHT22;16392;52.508;13.468;2023-02-24T07:28:41;4.50;99.90
8563;DHT22;16392;52.508;13.468;2023-02-24T07:31:10;4.60;1.00
8563;DHT22;16392;52.508;13.468;2023-02-24T07:33:37;4.50;99.90
8563;DHT22;16392;52.508;13.468;2023-02-24T07:36:05;4.50;99.90
8563;DHT22;16392;52.508;13.468;2023-02-24T07:38:35;4.40;99.90
8563;DHT22;16392;52.508;13.468;2023-02-24T07:41:02;4.40;99.90
8563;DHT22;16392;52.508;13.468;2023-02-24T07:43:28;4.50;99.90
8563;DHT22;16392;52.508;13.468;2023-02-24T07:45:57;4.50;98.00
8563;DHT22;16392;52.508;13.468;2023-02-24T07:48:30;4.50;99.90
8563;DHT22;16392;52.508;13.468;2023-02-24T07:50:57;4.50;1.00
8563;DHT22;16392;52.508;13.468;2023-02-24T07:53:24;4.70;1.00
8563;DHT22;16392;52.508;13.468;2023-02-24T07:55:52;4.70;99.90
8563;DHT22;16392;52.508;13.468;2023-02-24T07:58:19;4.70;1.00
8563;DHT22;16392;52.508;13.468;2023-02-24T08:00:47;4.70;1.00
8563;DHT22;16392;52.508;13.468;2023-02-24T08:03:26;4.70;99.90
8563;DHT22;16392;52.508;13.468;2023-02-24T08:05:55;4.70;99.90
8563;DHT22;16392;52.508;13.468;2023-02-24T08:08:40;4.70;1.00
8563;DHT22;16392;52.508;13.468;2023-02-24T08:11:23;4.80;1.00
8563;DHT22;16392;52.508;13.468;2023-02-24T08:13:51;5.00;11.50
8563;DHT22;16392;52.508;13.468;2023-02-24T08:16:18;5.00;1.00
8563;DHT22;16392;52.508;13.468;2023-02-24T08:18:46;5.00;99.90
8563;DHT22;16392;52.508;13.468;2023-02-24T08:21:15;5.10;1.00
8563;DHT22;16392;52.508;13.468;2023-02-24T08:23:46;5.10;1.00
8563;DHT22;16392;52.508;13.468;2023-02-24T08:26:12;5.10;1.00
8563;DHT22;16392;52.508;13.468;2023-02-24T08:28:39;5.20;1.00
8563;DHT22;16392;52.508;13.468;2023-02-24T08:31:06;5.10;1.00
8563;DHT22;16392;52.508;13.468;2023-02-24T08:33:33;5.10;1.00
8563;DHT22;16392;52.508;13.468;2023-02-24T08:36:03;5.10;1.00
8563;DHT22;16392;52.508;13.468;2023-02-24T08:38:32;5.20;1.00
8563;DHT22;16392;52.508;13.468;2023-02-24T08:41:11;5.20;1.00
8563;DHT22;16392;52.508;13.468;2023-02-24T08:43:42;5.30;99.90
8563;DHT22;16392;52.508;13.468;2023-02-24T08:46:16;5.40;1.00
8563;DHT22;16392;52.508;13.468;2023-02-24T08:48:45;5.40;1.00
8563;DHT22;16392;52.508;13.468;2023-02-24T08:51:15;5.50;1.00
8563;DHT22;16392;52.508;13.468;2023-02-24T08:53:48;5.60;99.90
8563;DHT22;16392;52.508;13.468;2023-02-24T08:56:19;5.80;9.50
8563;DHT22;16392;52.508;13.468;2023-02-24T08:58:50;6.00;1.00
8563;DHT22;16392;52.508;13.468;2023-02-24T09:01:24;6.20;99.90
8563;DHT22;16392;52.508;13.468;2023-02-24T09:03:53;6.30;1.00
8563;DHT22;16392;52.508;13.468;2023-02-24T09:06:25;6.40;1.00
8563;DHT22;16392;52.508;13.468;2023-02-24T09:08:54;6.40;1.00
8563;DHT22;16392;52.508;13.468;2023-02-24T09:11:42;6.30;1.00
8563;DHT22;16392;52.508;13.468;2023-02-24T09:14:10;6.20;1.00
8563;DHT22;16392;52.508;13.468;2023-02-24T09:16:43;6.10;1.00
8563;DHT22;16392;52.508;13.468;2023-02-24T09:19:27;6.20;64.30
8563;DHT22;16392;52.508;13.468;2023-02-24T09:22:15;6.20;99.90
8563;DHT22;16392;52.508;13.468;2023-02-24T09:24:56;6.20;99.90
8563;DHT22;16392;52.508;13.468;2023-02-24T09:27:42;6.10;5.50
8563;DHT22;16392;52.508;13.468;2023-02-24T09:30:12;5.90;27.50
8563;DHT22;16392;52.508;13.468;2023-02-24T09:33:03;5.80;99.90
8563;DHT22;16392;52.508;13.468;2023-02-24T09:35:30;5.80;99.90
8563;DHT22;16392;52.508;13.468;2023-02-24T09:38:02;5.60;99.90
8563;DHT22;16392;52.508;13.468;2023-02-24T09:40:32;5.60;1.00
8563;DHT22;16392;52.508;13.468;2023-02-24T09:43:07;5.80;1.00
8563;DHT22;16392;52.508;13.468;2023-02-24T09:45:45;6.00;1.00
8563;DHT22;16392;52.508;13.468;2023-02-24T09:48:22;5.90;99.90
8563;DHT22;16392;52.508;13.468;2023-02-24T09:50:50;5.90;99.90
8563;DHT22;16392;52.508;13.468;2023-02-24T09:53:33;5.80;99.90
8563;DHT22;16392;52.508;13.468;2023-02-24T09:56:19;5.80;99.90
8563;DHT22;16392;52.508;13.468;2023-02-24T09:58:50;5.70;99.90
8563;DHT22;16392;52.508;13.468;2023-02-24T10:01:38;5.80;99.90
8563;DHT22;16392;52.508;13.468;2023-02-24T10:04:16;5.80;99.90
8563;DHT22;16392;52.508;13.468;2023-02-24T10:06:49;6.00;99.90
8563;DHT22;16392;52.508;13.468;2023-02-24T10:09:22;6.30;68.10
8563;DHT22;16392;52.508;13.468;2023-02-24T10:11:54;6.30;1.00
8563;DHT22;16392;52.508;13.468;2023-02-24T10:14:33;6.30;1.00
8563;DHT22;16392;52.508;13.468;2023-02-24T10:17:13;6.20;99.90
8563;DHT22;16392;52.508;13.468;2023-02-24T10:19:50;6.30;1.00
8563;DHT22;16392;52.508;13.468;2023-02-24T10:22:30;6.40;99.90
8563;DHT22;16392;52.508;13.468;2023-02-24T10:25:18;6.50;99.90
8563;DHT22;16392;52.508;13.468;2023-02-24T10:27:54;6.50;1.00
8563;DHT22;16392;52.508;13.468;2023-02-24T10:30:33;6.60;1.00
8563;DHT22;16392;52.508;13.468;2023-02-24T10:33:16;6.70;1.00
8563;DHT22;16392;52.508;13.468;2023-02-24T10:35:45;6.80;1.00
8563;DHT22;16392;52.508;13.468;2023-02-24T10:38:11;6.90;1.00
8563;DHT22;16392;52.508;13.468;2023-02-24T10:40:47;7.10;99.90
8563;DHT22;16392;52.508;13.468;2023-02-24T10:43:22;7.00;1.00
8563;DHT22;16392;52.508;13.468;2023-02-24T10:45:55;6.90;1.00
8563;DHT22;16392;52.508;13.468;2023-02-24T10:48:31;6.70;1.00
8563;DHT22;16392;52.508;13.468;2023-02-24T10:51:09;6.70;1.00
8563;DHT22;16392;52.508;13.468;2023-02-24T10:53:36;6.60;1.00
8563;DHT22;16392;52.508;13.468;2023-02-24T10:56:06;6.50;1.00
8563;DHT22;16392;52.508;13.468;2023-02-24T10:59:03;6.40;1.00
8563;DHT22;16392;52.508;13.468;2023-02-24T11:02:15;6.20;1.00
8563;DHT22;16392;52.508;13.468;2023-02-24T11:04:51;6.00;99.90
8563;DHT22;16392;52.508;13.468;2023-02-24T11:07:41;5.90;1.00
8563;DHT22;16392;52.508;13.468;2023-02-24T11:10:21;5.80;1.00
8563;DHT22;16392;52.508;13.468;2023-02-24T11:12:59;5.60;99.90
8563;DHT22;16392;52.508;13.468;2023-02-24T11:15:47;5.40;1.00
8563;DHT22;16392;52.508;13.468;2023-02-24T11:18:32;5.10;1.00
8563;DHT22;16392;52.508;13.468;2023-02-24T11:21:02;5.10;1.00
8563;DHT22;16392;52.508;13.468;2023-02-24T11:23:32;5.20;1.00
8563;DHT22;16392;52.508;13.468;2023-02-24T11:26:02;5.10;1.00
8563;DHT22;16392;52.508;13.468;2023-02-24T11:28:42;5.10;99.90
8563;DHT22;16392;52.508;13.468;2023-02-24T11:31:22;5.00;99.90
8563;DHT22;16392;52.508;13.468;2023-02-24T11:33:59;4.80;99.90
8563;DHT22;16392;52.508;13.468;2023-02-24T11:36:39;4.70;99.90
8563;DHT22;16392;52.508;13.468;2023-02-24T11:39:16;4.40;99.90
8563;DHT22;16392;52.508;13.468;2023-02-24T11:41:50;4.30;99.90
8563;DHT22;16392;52.508;13.468;2023-02-24T11:44:22;4.30;99.90
8563;DHT22;16392;52.508;13.468;2023-02-24T11:46:53;4.30;99.90
8563;DHT22;16392;52.508;13.468;2023-02-24T11:49:26;4.10;99.90
8563;DHT22;16392;52.508;13.468;2023-02-24T11:51:57;4.10;99.90
8563;DHT22;16392;52.508;13.468;2023-02-24T11:54:28;4.00;99.90
8563;DHT22;16392;52.508;13.468;2023-02-24T11:56:58;4.10;99.90
8563;DHT22;16392;52.508;13.468;2023-02-24T11:59:32;4.10;99.90
8563;DHT22;16392;52.508;13.468;2023-02-24T12:02:10;3.90;99.90
8563;DHT22;16392;52.508;13.468;2023-02-24T12:04:44;3.90;99.90
8563;DHT22;16392;52.508;13.468;2023-02-24T12:07:20;3.90;99.90
8563;DHT22;16392;52.508;13.468;2023-02-24T12:09:50;3.90;99.90
8563;DHT22;16392;52.508;13.468;2023-02-24T12:12:22;3.80;99.90
8563;DHT22;16392;52.508;13.468;2023-02-24T12:14:53;3.80;99.90
8563;DHT22;16392;52.508;13.468;2023-02-24T12:17:27;3.70;99.90
8563;DHT22;16392;52.508;13.468;2023-02-24T12:19:59;3.60;99.90
8563;DHT22;16392;52.508;13.468;2023-02-24T12:22:34;3.60;99.90
8563;DHT22;16392;52.508;13.468;2023-02-24T12:25:09;3.60;99.90
8563;DHT22;16392;52.508;13.468;2023-02-24T12:27:45;3.60;99.90
8563;DHT22;16392;52.508;13.468;2023-02-24T12:30:30;3.70;99.90
8563;DHT22;16392;52.508;13.468;2023-02-24T12:33:11;3.70;99.90
8563;DHT22;16392;52.508;13.468;2023-02-24T12:35:45;3.70;99.90
8563;DHT22;16392;52.508;13.468;2023-02-24T12:38:40;3.80;99.90
8563;DHT22;16392;52.508;13.468;2023-02-24T12:41:24;3.90;99.90
8563;DHT22;16392;52.508;13.468;2023-02-24T12:44:01;3.70;99.90
8563;DHT22;16392;52.508;13.468;2023-02-24T12:46:34;3.70;99.90
8563;DHT22;16392;52.508;13.468;2023-02-24T12:49:16;3.80;99.90
8563;DHT22;16392;52.508;13.468;2023-02-24T12:51:59;3.80;99.90
8563;DHT22;16392;52.508;13.468;2023-02-24T12:54:30;3.80;99.90
8563;DHT22;16392;52.508;13.468;2023-02-24T12:57:03;3.80;99.90
8563;DHT22;16392;52.508;13.468;2023-02-24T12:59:37;3.70;99.90
8563;DHT22;16392;52.508;13.468;2023-02-24T13:02:11;3.60;99.90
8563;DHT22;16392;52.508;13.468;2023-02-24T13:04:52;3.60;99.90
8563;DHT22;16392;52.508;13.468;2023-02-24T13:07:49;3.60;99.90
8563;DHT22;16392;52.508;13.468;2023-02-24T13:10:28;3.60;99.90
8563;DHT22;16392;52.508;13.468;2023-02-24T13:13:03;3.60;99.90
8563;DHT22;16392;52.508;13.468;2023-02-24T13:15:31;3.60;99.90
8563;DHT22;16392;52.508;13.468;2023-02-24T13:17:59;3.60;99.90
8563;DHT22;16392;52.508;13.468;2023-02-24T13:20:29;3.50;99.90
8563;DHT22;16392;52.508;13.468;2023-02-24T13:22:57;3.50;99.90
8563;DHT22;16392;52.508;13.468;2023-02-24T13:25:31;3.40;99.90
8563;DHT22;16392;52.508;13.468;2023-02-24T13:28:01;3.40;99.90
8563;DHT22;16392;52.508;13.468;2023-02-24T13:30:35;3.50;99.90
8563;DHT22;16392;52.508;13.468;2023-02-24T13:33:19;3.40;99.90
8563;DHT22;16392;52.508;13.468;2023-02-24T13:35:48;3.40;99.90
8563;DHT22;16392;52.508;13.468;2023-02-24T13:38:25;3.40;99.90
8563;DHT22;16392;52.508;13.468;2023-02-24T13:41:18;3.40;99.90
8563;DHT22;16392;52.508;13.468;2023-02-24T13:43:53;3.30;99.90
8563;DHT22;16392;52.508;13.468;2023-02-24T13:46:20;3.30;99.90
8563;DHT22;16392;52.508;13.468;2023-02-24T13:49:05;3.30;99.90
8563;DHT22;16392;52.508;13.468;2023-02-24T13:51:56;3.20;99.90
8563;DHT22;16392;52.508;13.468;2023-02-24T13:55:02;3.30;99.90
8563;DHT22;16392;52.508;13.468;2023-02-24T13:57:46;3.30;99.90
8563;DHT22;16392;52.508;13.468;2023-02-24T14:00:25;3.30;99.90
8563;DHT22;16392;52.508;13.468;2023-02-24T14:02:54;3.30;99.90
8563;DHT22;16392;52.508;13.468;2023-02-24T14:05:26;3.30;99.90
8563;DHT22;16392;52.508;13.468;2023-02-24T14:07:54;3.20;99.90
8563;DHT22;16392;52.508;13.468;2023-02-24T14:10:23;3.20;99.90
8563;DHT22;16392;52.508;13.468;2023-02-24T14:12:59;3.20;99.90
8563;DHT22;16392;52.508;13.468;2023-02-24T14:15:27;3.20;99.90
8563;DHT22;16392;52.508;13.468;2023-02-24T14:17:55;3.20;99.90
8563;DHT22;16392;52.508;13.468;2023-02-24T14:20:25;3.30;99.90
8563;DHT22;16392;52.508;13.468;2023-02-24T14:22:53;3.20;99.90
8563;DHT22;16392;52.508;13.468;2023-02-24T14:25:25;3.30;99.90
8563;DHT22;16392;52.508;13.468;2023-02-24T14:27:54;3.40;99.90
8563;DHT22;16392;52.508;13.468;2023-02-24T14:30:23;3.40;99.90
8563;DHT22;16392;52.508;13.468;2023-02-24T14:32:51;3.40;99.90
8563;DHT22;16392;52.508;13.468;2023-02-24T14:35:19;3.40;99.90
8563;DHT22;16392;52.508;13.468;2023-02-24T14:37:50;3.30;99.90
8563;DHT22;16392;52.508;13.468;2023-02-24T14:40:17;3.30;99.90
8563;DHT22;16392;52.508;13.468;2023-02-24T14:42:47;3.30;99.90
8563;DHT22;16392;52.508;13.468;2023-02-24T14:45:16;3.30;99.90
8563;DHT22;16392;52.508;13.468;2023-02-24T14:47:43;3.30;99.90
8563;DHT22;16392;52.508;13.468;2023-02-24T14:50:14;3.30;99.90
8563;DHT22;16392;52.508;13.468;2023-02-24T14:52:45;3.30;99.90
8563;DHT22;16392;52.508;13.468;2023-02-24T14:55:18;3.30;99.90
8563;DHT22;16392;52.508;13.468;2023-02-24T14:57:49;3.40;99.90
8563;DHT22;16392;52.508;13.468;2023-02-24T15:00:20;3.50;99.90
8563;DHT22;16392;52.508;13.468;2023-02-24T15:02:54;3.50;99.90
8563;DHT22;16392;52.508;13.468;2023-02-24T15:05:21;3.50;99.90
8563;DHT22;16392;52.508;13.468;2023-02-24T15:07:48;3.50;99.90
8563;DHT22;16392;52.508;13.468;2023-02-24T15:10:20;3.50;99.90
8563;DHT22;16392;52.508;13.468;2023-02-24T15:12:50;3.50;99.90
8563;DHT22;16392;52.508;13.468;2023-02-24T15:15:20;3.40;99.90
8563;DHT22;16392;52.508;13.468;2023-02-24T15:17:52;3.40;99.90
8563;DHT22;16392;52.508;13.468;2023-02-24T15:20:31;3.40;99.90
8563;DHT22;16392;52.508;13.468;2023-02-24T15:22:58;3.40;99.90
8563;DHT22;16392;52.508;13.468;2023-02-24T15:25:28;3.30;99.90
8563;DHT22;16392;52.508;13.468;2023-02-24T15:27:57;3.40;99.90
8563;DHT22;16392;52.508;13.468;2023-02-24T15:30:27;3.40;99.90
8563;DHT22;16392;52.508;13.468;2023-02-24T15:32:59;3.30;99.90
8563;DHT22;16392;52.508;13.468;2023-02-24T15:35:27;3.30;99.90
8563;DHT22;16392;52.508;13.468;2023-02-24T15:37:54;3.20;99.90
8563;DHT22;16392;52.508;13.468;2023-02-24T15:40:23;3.20;99.90
8563;DHT22;16392;52.508;13.468;2023-02-24T15:42:54;3.10;99.90
8563;DHT22;16392;52.508;13.468;2023-02-24T15:45:27;3.20;99.90
8563;DHT22;16392;52.508;13.468;2023-02-24T15:47:56;3.10;99.90
8563;DHT22;16392;52.508;13.468;2023-02-24T15:50:24;3.10;99.90
8563;DHT22;16392;52.508;13.468;2023-02-24T15:52:51;3.10;99.90
8563;DHT22;16392;52.508;13.468;2023-02-24T15:55:18;3.20;99.90
8563;DHT22;16392;52.508;13.468;2023-02-24T15:57:46;3.20;99.90
8563;DHT22;16392;52.508;13.468;2023-02-24T16:00:16;3.10;99.90
8563;DHT22;16392;52.508;13.468;2023-02-24T16:02:43;3.20;99.90
8563;DHT22;16392;52.508;13.468;2023-02-24T16:05:12;3.20;99.90
8563;DHT22;16392;52.508;13.468;2023-02-24T16:07:40;3.20;99.90
8563;DHT22;16392;52.508;13.468;2023-02-24T16:10:15;3.20;99.90
8563;DHT22;16392;52.508;13.468;2023-02-24T16:12:46;3.20;99.90
8563;DHT22;16392;52.508;13.468;2023-02-24T16:15:18;3.20;99.90
8563;DHT22;16392;52.508;13.468;2023-02-24T16:17:45;3.20;99.90
8563;DHT22;16392;52.508;13.468;2023-02-24T16:20:15;3.20;99.90
8563;DHT22;16392;52.508;13.468;2023-02-24T16:22:41;3.30;99.90
8563;DHT22;16392;52.508;13.468;2023-02-24T16:25:10;3.30;99.90